sensor_id;sensor_type;location;lat;lon;timestamp;temperature;humidity
40868;DHT22;26586;50.708;22.412;2023-05-10T00:01:41;16.10;35.50
40868;DHT22;26586;50.708;22.412;2023-05-10T00:04:07;16.10;35.60
40868;DHT22;26586;50.708;22.412;2023-05-10T00:06:34;16.00;35.50
40868;DHT22;26586;50.708;22.412;2023-05-10T00:09:01;16.00;35.60
40868;DHT22;26586;50.708;22.412;2023-05-10T00:11:27;16.00;35.60
40868;DHT22;26586;50.708;22.412;2023-05-10T00:13:53;16.00;35.60
40868;DHT22;26586;50.708;22.412;2023-05-10T00:16:19;16.00;35.70
40868;DHT22;26586;50.708;22.412;2023-05-10T00:18:45;15.90;35.70
40868;DHT22;26586;50.708;22.412;2023-05-10T00:21:12;15.90;35.70
40868;DHT22;26586;50.708;22.412;2023-05-10T00:23:38;15.90;35.80
40868;DHT22;26586;50.708;22.412;2023-05-10T00:26:04;15.90;35.80
40868;DHT22;26586;50.708;22.412;2023-05-10T00:28:30;15.80;35.90
40868;DHT22;26586;50.708;22.412;2023-05-10T00:30:57;15.80;35.80
40868;DHT22;26586;50.708;22.412;2023-05-10T00:33:23;15.80;36.00
40868;DHT22;26586;50.708;22.412;2023-05-10T00:35:50;15.80;36.00
40868;DHT22;26586;50.708;22.412;2023-05-10T00:38:17;15.80;36.00
40868;DHT22;26586;50.708;22.412;2023-05-10T00:40:43;15.80;36.00
40868;DHT22;26586;50.708;22.412;2023-05-10T00:43:09;15.80;35.80
40868;DHT22;26586;50.708;22.412;2023-05-10T00:45:36;15.70;35.80
40868;DHT22;26586;50.708;22.412;2023-05-10T00:48:03;15.70;35.80
40868;DHT22;26586;50.708;22.412;2023-05-10T00:50:31;15.70;35.90
40868;DHT22;26586;50.708;22.412;2023-05-10T00:52:59;15.70;35.90
40868;DHT22;26586;50.708;22.412;2023-05-10T00:55:25;15.70;36.00
40868;DHT22;26586;50.708;22.412;2023-05-10T00:57:53;15.70;36.00
40868;DHT22;26586;50.708;22.412;2023-05-10T01:00:19;15.70;36.00
40868;DHT22;26586;50.708;22.412;2023-05-10T01:02:46;15.70;36.00
40868;DHT22;26586;50.708;22.412;2023-05-10T01:05:13;15.60;36.00
40868;DHT22;26586;50.708;22.412;2023-05-10T01:07:39;15.60;35.90
40868;DHT22;26586;50.708;22.412;2023-05-10T01:10:06;15.60;35.90
40868;DHT22;26586;50.708;22.412;2023-05-10T01:12:35;15.60;36.00
40868;DHT22;26586;50.708;22.412;2023-05-10T01:15:02;15.60;36.00
40868;DHT22;26586;50.708;22.412;2023-05-10T01:17:28;15.50;36.00
40868;DHT22;26586;50.708;22.412;2023-05-10T01:19:55;15.50;36.20
40868;DHT22;26586;50.708;22.412;2023-05-10T01:25:51;15.60;36.10
40868;DHT22;26586;50.708;22.412;2023-05-10T01:28:39;15.50;36.00
40868;DHT22;26586;50.708;22.412;2023-05-10T01:31:38;15.50;36.10
40868;DHT22;26586;50.708;22.412;2023-05-10T01:34:21;15.50;36.30
40868;DHT22;26586;50.708;22.412;2023-05-10T01:37:01;15.50;36.00
40868;DHT22;26586;50.708;22.412;2023-05-10T01:39:51;15.50;36.10
40868;DHT22;26586;50.708;22.412;2023-05-10T01:42:26;15.40;36.10
40868;DHT22;26586;50.708;22.412;2023-05-10T01:47:45;15.40;36.10
40868;DHT22;26586;50.708;22.412;2023-05-10T01:50:18;15.30;36.20
40868;DHT22;26586;50.708;22.412;2023-05-10T01:52:49;15.30;36.20
40868;DHT22;26586;50.708;22.412;2023-05-10T01:55:19;15.30;36.20
40868;DHT22;26586;50.708;22.412;2023-05-10T01:57:48;15.30;36.30
40868;DHT22;26586;50.708;22.412;2023-05-10T02:00:17;15.30;36.20
40868;DHT22;26586;50.708;22.412;2023-05-10T02:02:47;15.30;36.30
40868;DHT22;26586;50.708;22.412;2023-05-10T02:05:16;15.30;36.30
40868;DHT22;26586;50.708;22.412;2023-05-10T02:07:43;15.20;36.20
40868;DHT22;26586;50.708;22.412;2023-05-10T02:10:11;15.20;36.30
40868;DHT22;26586;50.708;22.412;2023-05-10T02:12:46;15.30;36.50
40868;DHT22;26586;50.708;22.412;2023-05-10T02:15:22;15.20;36.50
40868;DHT22;26586;50.708;22.412;2023-05-10T02:17:49;15.10;36.60
40868;DHT22;26586;50.708;22.412;2023-05-10T02:20:16;15.10;36.70
40868;DHT22;26586;50.708;22.412;2023-05-10T02:22:42;15.10;36.70
40868;DHT22;26586;50.708;22.412;2023-05-10T02:25:11;15.10;36.70
40868;DHT22;26586;50.708;22.412;2023-05-10T02:27:41;15.10;36.80
40868;DHT22;26586;50.708;22.412;2023-05-10T02:30:09;15.10;36.80
40868;DHT22;26586;50.708;22.412;2023-05-10T02:32:36;15.10;37.10
40868;DHT22;26586;50.708;22.412;2023-05-10T02:35:04;15.10;37.00
40868;DHT22;26586;50.708;22.412;2023-05-10T02:37:31;15.10;37.50
40868;DHT22;26586;50.708;22.412;2023-05-10T02:39:59;15.10;37.10
40868;DHT22;26586;50.708;22.412;2023-05-10T02:42:27;15.10;37.10
40868;DHT22;26586;50.708;22.412;2023-05-10T02:44:59;15.10;37.20
40868;DHT22;26586;50.708;22.412;2023-05-10T02:47:27;15.10;37.10
40868;DHT22;26586;50.708;22.412;2023-05-10T02:49:54;15.10;37.10
40868;DHT22;26586;50.708;22.412;2023-05-10T02:52:24;15.10;37.20
40868;DHT22;26586;50.708;22.412;2023-05-10T02:54:55;15.10;37.10
40868;DHT22;26586;50.708;22.412;2023-05-10T02:57:33;15.00;37.10
40868;DHT22;26586;50.708;22.412;2023-05-10T03:00:01;15.00;37.00
40868;DHT22;26586;50.708;22.412;2023-05-10T03:02:27;15.00;37.00
40868;DHT22;26586;50.708;22.412;2023-05-10T03:04:53;15.00;37.10
40868;DHT22;26586;50.708;22.412;2023-05-10T03:07:20;15.00;37.20
40868;DHT22;26586;50.708;22.412;2023-05-10T03:09:48;15.00;37.30
40868;DHT22;26586;50.708;22.412;2023-05-10T03:13:16;15.00;37.30
40868;DHT22;26586;50.708;22.412;2023-05-10T03:18:22;15.00;37.50
40868;DHT22;26586;50.708;22.412;2023-05-10T03:20:50;14.90;37.50
40868;DHT22;26586;50.708;22.412;2023-05-10T03:23:47;14.90;37.70
40868;DHT22;26586;50.708;22.412;2023-05-10T03:26:20;14.90;37.80
40868;DHT22;26586;50.708;22.412;2023-05-10T03:28:48;14.90;37.80
40868;DHT22;26586;50.708;22.412;2023-05-10T03:31:15;14.90;37.70
40868;DHT22;26586;50.708;22.412;2023-05-10T03:33:49;14.90;37.80
40868;DHT22;26586;50.708;22.412;2023-05-10T03:36:15;14.90;38.20
40868;DHT22;26586;50.708;22.412;2023-05-10T03:38:42;14.90;38.10
40868;DHT22;26586;50.708;22.412;2023-05-10T03:41:08;14.80;39.00
40868;DHT22;26586;50.708;22.412;2023-05-10T03:43:34;14.80;38.50
40868;DHT22;26586;50.708;22.412;2023-05-10T03:46:04;14.80;38.30
40868;DHT22;26586;50.708;22.412;2023-05-10T03:48:32;14.80;38.30
40868;DHT22;26586;50.708;22.412;2023-05-10T03:50:58;14.80;38.40
40868;DHT22;26586;50.708;22.412;2023-05-10T03:53:24;14.80;38.40
40868;DHT22;26586;50.708;22.412;2023-05-10T03:55:51;14.80;38.60
40868;DHT22;26586;50.708;22.412;2023-05-10T03:58:17;14.70;38.70
40868;DHT22;26586;50.708;22.412;2023-05-10T04:00:44;14.70;38.70
40868;DHT22;26586;50.708;22.412;2023-05-10T04:03:11;14.70;39.00
40868;DHT22;26586;50.708;22.412;2023-05-10T04:05:38;14.70;39.10
40868;DHT22;26586;50.708;22.412;2023-05-10T04:08:05;14.70;39.40
40868;DHT22;26586;50.708;22.412;2023-05-10T04:10:31;14.80;39.70
40868;DHT22;26586;50.708;22.412;2023-05-10T04:12:57;14.70;39.60
40868;DHT22;26586;50.708;22.412;2023-05-10T04:15:24;14.80;39.90
40868;DHT22;26586;50.708;22.412;2023-05-10T04:17:50;14.80;41.00
40868;DHT22;26586;50.708;22.412;2023-05-10T04:20:16;14.80;40.30
40868;DHT22;26586;50.708;22.412;2023-05-10T04:22:43;14.80;40.50
40868;DHT22;26586;50.708;22.412;2023-05-10T04:25:09;14.90;40.60
40868;DHT22;26586;50.708;22.412;2023-05-10T04:27:35;14.80;41.00
40868;DHT22;26586;50.708;22.412;2023-05-10T04:30:02;14.90;43.10
40868;DHT22;26586;50.708;22.412;2023-05-10T04:32:28;15.00;40.80
40868;DHT22;26586;50.708;22.412;2023-05-10T04:34:55;15.00;41.90
40868;DHT22;26586;50.708;22.412;2023-05-10T04:37:21;15.00;40.30
40868;DHT22;26586;50.708;22.412;2023-05-10T04:39:48;15.10;41.00
40868;DHT22;26586;50.708;22.412;2023-05-10T04:42:15;15.10;42.10
40868;DHT22;26586;50.708;22.412;2023-05-10T04:44:41;15.20;42.60
40868;DHT22;26586;50.708;22.412;2023-05-10T04:47:07;15.30;42.70
40868;DHT22;26586;50.708;22.412;2023-05-10T04:49:33;15.30;45.00
40868;DHT22;26586;50.708;22.412;2023-05-10T04:52:00;15.40;44.80
40868;DHT22;26586;50.708;22.412;2023-05-10T04:54:26;15.60;43.60
40868;DHT22;26586;50.708;22.412;2023-05-10T04:56:52;15.60;43.10
40868;DHT22;26586;50.708;22.412;2023-05-10T04:59:18;15.70;42.70
40868;DHT22;26586;50.708;22.412;2023-05-10T05:01:44;15.70;41.60
40868;DHT22;26586;50.708;22.412;2023-05-10T05:04:11;15.80;41.30
40868;DHT22;26586;50.708;22.412;2023-05-10T05:06:37;15.90;42.40
40868;DHT22;26586;50.708;22.412;2023-05-10T05:09:03;16.00;40.80
40868;DHT22;26586;50.708;22.412;2023-05-10T05:11:29;16.10;40.70
40868;DHT22;26586;50.708;22.412;2023-05-10T05:13:56;16.10;40.40
40868;DHT22;26586;50.708;22.412;2023-05-10T05:16:22;16.20;40.60
40868;DHT22;26586;50.708;22.412;2023-05-10T05:18:48;16.30;41.20
40868;DHT22;26586;50.708;22.412;2023-05-10T05:21:18;16.40;43.80
40868;DHT22;26586;50.708;22.412;2023-05-10T05:23:45;16.50;40.40
40868;DHT22;26586;50.708;22.412;2023-05-10T05:26:12;16.50;40.80
40868;DHT22;26586;50.708;22.412;2023-05-10T05:28:38;16.60;42.20
40868;DHT22;26586;50.708;22.412;2023-05-10T05:31:05;16.70;39.00
40868;DHT22;26586;50.708;22.412;2023-05-10T05:33:31;16.80;39.90
40868;DHT22;26586;50.708;22.412;2023-05-10T05:36:01;16.90;38.50
40868;DHT22;26586;50.708;22.412;2023-05-10T05:38:27;16.90;38.30
40868;DHT22;26586;50.708;22.412;2023-05-10T05:40:53;17.00;38.10
40868;DHT22;26586;50.708;22.412;2023-05-10T05:43:19;17.00;38.10
40868;DHT22;26586;50.708;22.412;2023-05-10T05:45:45;17.10;38.40
40868;DHT22;26586;50.708;22.412;2023-05-10T05:48:11;17.20;37.70
40868;DHT22;26586;50.708;22.412;2023-05-10T05:50:38;17.30;37.50
40868;DHT22;26586;50.708;22.412;2023-05-10T05:53:04;17.30;37.30
40868;DHT22;26586;50.708;22.412;2023-05-10T05:55:30;17.40;37.30
40868;DHT22;26586;50.708;22.412;2023-05-10T05:57:58;17.40;37.20
40868;DHT22;26586;50.708;22.412;2023-05-10T06:00:24;17.50;37.40
40868;DHT22;26586;50.708;22.412;2023-05-10T06:02:50;17.60;37.70
40868;DHT22;26586;50.708;22.412;2023-05-10T06:05:16;17.60;36.50
40868;DHT22;26586;50.708;22.412;2023-05-10T06:07:43;17.70;36.30
40868;DHT22;26586;50.708;22.412;2023-05-10T06:10:09;17.80;36.30
40868;DHT22;26586;50.708;22.412;2023-05-10T06:12:36;17.80;36.50
40868;DHT22;26586;50.708;22.412;2023-05-10T06:15:03;17.90;36.60
40868;DHT22;26586;50.708;22.412;2023-05-10T06:17:29;18.00;36.40
40868;DHT22;26586;50.708;22.412;2023-05-10T06:19:56;18.00;36.30
40868;DHT22;26586;50.708;22.412;2023-05-10T06:22:22;18.20;35.20
40868;DHT22;26586;50.708;22.412;2023-05-10T06:24:49;18.20;34.50
40868;DHT22;26586;50.708;22.412;2023-05-10T06:27:15;18.20;34.50
40868;DHT22;26586;50.708;22.412;2023-05-10T06:29:41;18.20;34.70
40868;DHT22;26586;50.708;22.412;2023-05-10T06:32:08;18.30;34.10
40868;DHT22;26586;50.708;22.412;2023-05-10T06:34:34;18.30;34.00
40868;DHT22;26586;50.708;22.412;2023-05-10T06:37:00;18.40;34.10
40868;DHT22;26586;50.708;22.412;2023-05-10T06:39:26;18.40;33.80
40868;DHT22;26586;50.708;22.412;2023-05-10T06:41:52;18.50;34.40
40868;DHT22;26586;50.708;22.412;2023-05-10T06:44:19;18.60;34.70
40868;DHT22;26586;50.708;22.412;2023-05-10T06:46:46;18.70;33.70
40868;DHT22;26586;50.708;22.412;2023-05-10T06:49:12;18.70;33.40
40868;DHT22;26586;50.708;22.412;2023-05-10T06:51:38;18.80;33.80
40868;DHT22;26586;50.708;22.412;2023-05-10T06:54:05;18.80;34.10
40868;DHT22;26586;50.708;22.412;2023-05-10T06:56:32;18.90;32.40
40868;DHT22;26586;50.708;22.412;2023-05-10T06:58:59;18.90;31.50
40868;DHT22;26586;50.708;22.412;2023-05-10T07:01:25;19.00;31.70
40868;DHT22;26586;50.708;22.412;2023-05-10T07:03:51;19.00;31.70
40868;DHT22;26586;50.708;22.412;2023-05-10T07:06:18;19.00;31.40
40868;DHT22;26586;50.708;22.412;2023-05-10T07:08:44;19.10;30.90
40868;DHT22;26586;50.708;22.412;2023-05-10T07:11:10;19.10;31.00
40868;DHT22;26586;50.708;22.412;2023-05-10T07:13:36;19.10;30.60
40868;DHT22;26586;50.708;22.412;2023-05-10T07:16:05;19.10;29.30
40868;DHT22;26586;50.708;22.412;2023-05-10T07:18:32;19.20;29.40
40868;DHT22;26586;50.708;22.412;2023-05-10T07:20:58;19.20;29.50
40868;DHT22;26586;50.708;22.412;2023-05-10T07:23:24;19.20;29.80
40868;DHT22;26586;50.708;22.412;2023-05-10T07:25:51;19.30;29.80
40868;DHT22;26586;50.708;22.412;2023-05-10T07:28:18;19.30;32.30
40868;DHT22;26586;50.708;22.412;2023-05-10T07:30:44;19.40;30.90
40868;DHT22;26586;50.708;22.412;2023-05-10T07:33:12;19.40;29.50
40868;DHT22;26586;50.708;22.412;2023-05-10T07:35:40;19.50;29.20
40868;DHT22;26586;50.708;22.412;2023-05-10T07:38:06;19.60;28.90
40868;DHT22;26586;50.708;22.412;2023-05-10T07:40:32;19.60;29.60
40868;DHT22;26586;50.708;22.412;2023-05-10T07:42:59;19.70;29.00
40868;DHT22;26586;50.708;22.412;2023-05-10T07:45:28;19.70;28.70
40868;DHT22;26586;50.708;22.412;2023-05-10T07:47:54;19.70;29.80
40868;DHT22;26586;50.708;22.412;2023-05-10T07:50:20;19.80;29.10
40868;DHT22;26586;50.708;22.412;2023-05-10T07:52:47;19.90;29.80
40868;DHT22;26586;50.708;22.412;2023-05-10T07:55:14;19.90;29.20
40868;DHT22;26586;50.708;22.412;2023-05-10T07:57:41;19.90;28.90
40868;DHT22;26586;50.708;22.412;2023-05-10T08:00:17;19.90;29.20
40868;DHT22;26586;50.708;22.412;2023-05-10T08:02:44;19.90;29.50
40868;DHT22;26586;50.708;22.412;2023-05-10T08:05:10;20.00;29.30
40868;DHT22;26586;50.708;22.412;2023-05-10T08:07:36;20.00;29.30
40868;DHT22;26586;50.708;22.412;2023-05-10T08:10:04;20.10;29.20
40868;DHT22;26586;50.708;22.412;2023-05-10T08:12:30;20.10;29.00
40868;DHT22;26586;50.708;22.412;2023-05-10T08:14:56;20.10;29.40
40868;DHT22;26586;50.708;22.412;2023-05-10T08:17:23;20.10;29.40
40868;DHT22;26586;50.708;22.412;2023-05-10T08:19:50;20.20;29.50
40868;DHT22;26586;50.708;22.412;2023-05-10T08:22:16;20.30;29.90
40868;DHT22;26586;50.708;22.412;2023-05-10T08:24:43;20.30;30.10
40868;DHT22;26586;50.708;22.412;2023-05-10T08:27:09;20.30;29.20
40868;DHT22;26586;50.708;22.412;2023-05-10T08:29:37;20.40;29.80
40868;DHT22;26586;50.708;22.412;2023-05-10T08:32:03;20.40;30.00
40868;DHT22;26586;50.708;22.412;2023-05-10T08:34:29;20.50;29.60
40868;DHT22;26586;50.708;22.412;2023-05-10T08:36:56;20.50;29.50
40868;DHT22;26586;50.708;22.412;2023-05-10T08:39:23;20.50;28.90
40868;DHT22;26586;50.708;22.412;2023-05-10T08:41:51;20.50;29.40
40868;DHT22;26586;50.708;22.412;2023-05-10T08:44:19;20.60;29.50
40868;DHT22;26586;50.708;22.412;2023-05-10T08:46:51;20.60;29.60
40868;DHT22;26586;50.708;22.412;2023-05-10T08:49:20;20.70;29.90
40868;DHT22;26586;50.708;22.412;2023-05-10T08:51:48;20.70;28.60
40868;DHT22;26586;50.708;22.412;2023-05-10T08:54:16;20.70;29.10
40868;DHT22;26586;50.708;22.412;2023-05-10T08:56:42;20.70;28.60
40868;DHT22;26586;50.708;22.412;2023-05-10T08:59:08;20.80;28.40
40868;DHT22;26586;50.708;22.412;2023-05-10T09:01:36;20.80;28.90
40868;DHT22;26586;50.708;22.412;2023-05-10T09:04:03;20.90;28.50
40868;DHT22;26586;50.708;22.412;2023-05-10T09:06:30;20.80;28.40
40868;DHT22;26586;50.708;22.412;2023-05-10T09:08:56;20.90;28.10
40868;DHT22;26586;50.708;22.412;2023-05-10T09:11:23;20.90;28.70
40868;DHT22;26586;50.708;22.412;2023-05-10T09:13:51;20.90;28.10
40868;DHT22;26586;50.708;22.412;2023-05-10T09:16:18;21.00;28.00
40868;DHT22;26586;50.708;22.412;2023-05-10T09:18:44;21.00;27.90
40868;DHT22;26586;50.708;22.412;2023-05-10T09:21:10;21.00;27.70
40868;DHT22;26586;50.708;22.412;2023-05-10T09:23:37;21.00;27.30
40868;DHT22;26586;50.708;22.412;2023-05-10T09:26:04;21.00;27.50
40868;DHT22;26586;50.708;22.412;2023-05-10T09:31:16;21.00;27.40
40868;DHT22;26586;50.708;22.412;2023-05-10T09:33:45;21.10;28.00
40868;DHT22;26586;50.708;22.412;2023-05-10T09:36:12;21.10;27.50
40868;DHT22;26586;50.708;22.412;2023-05-10T09:38:49;21.10;27.00
40868;DHT22;26586;50.708;22.412;2023-05-10T09:41:21;21.10;26.70
40868;DHT22;26586;50.708;22.412;2023-05-10T09:43:48;21.10;27.20
40868;DHT22;26586;50.708;22.412;2023-05-10T09:46:18;21.10;27.00
40868;DHT22;26586;50.708;22.412;2023-05-10T09:48:46;21.20;27.40
40868;DHT22;26586;50.708;22.412;2023-05-10T09:51:24;21.20;27.50
40868;DHT22;26586;50.708;22.412;2023-05-10T09:54:13;21.20;27.70
40868;DHT22;26586;50.708;22.412;2023-05-10T09:56:40;21.20;27.50
40868;DHT22;26586;50.708;22.412;2023-05-10T09:59:10;21.20;26.50
40868;DHT22;26586;50.708;22.412;2023-05-10T10:01:38;21.20;26.70
40868;DHT22;26586;50.708;22.412;2023-05-10T10:04:06;21.30;27.20
40868;DHT22;26586;50.708;22.412;2023-05-10T10:06:39;21.30;27.60
40868;DHT22;26586;50.708;22.412;2023-05-10T10:09:07;21.30;27.60
40868;DHT22;26586;50.708;22.412;2023-05-10T10:11:37;21.30;27.30
40868;DHT22;26586;50.708;22.412;2023-05-10T10:14:04;21.30;27.10
40868;DHT22;26586;50.708;22.412;2023-05-10T10:16:34;21.30;26.70
40868;DHT22;26586;50.708;22.412;2023-05-10T10:19:01;21.30;27.50
40868;DHT22;26586;50.708;22.412;2023-05-10T10:21:27;21.30;28.10
40868;DHT22;26586;50.708;22.412;2023-05-10T10:23:54;21.30;28.30
40868;DHT22;26586;50.708;22.412;2023-05-10T10:26:21;21.30;28.60
40868;DHT22;26586;50.708;22.412;2023-05-10T10:29:19;21.40;28.60
40868;DHT22;26586;50.708;22.412;2023-05-10T10:34:26;21.40;29.00
40868;DHT22;26586;50.708;22.412;2023-05-10T10:36:55;21.40;28.90
40868;DHT22;26586;50.708;22.412;2023-05-10T10:39:24;21.40;28.90
40868;DHT22;26586;50.708;22.412;2023-05-10T10:41:55;21.40;29.10
40868;DHT22;26586;50.708;22.412;2023-05-10T10:47:04;21.50;29.30
40868;DHT22;26586;50.708;22.412;2023-05-10T10:49:52;21.40;28.80
40868;DHT22;26586;50.708;22.412;2023-05-10T10:52:35;21.50;28.50
40868;DHT22;26586;50.708;22.412;2023-05-10T11:00:38;21.40;27.90
40868;DHT22;26586;50.708;22.412;2023-05-10T11:03:07;21.40;27.70
40868;DHT22;26586;50.708;22.412;2023-05-10T11:05:44;21.50;27.20
40868;DHT22;26586;50.708;22.412;2023-05-10T11:08:32;21.50;27.00
40868;DHT22;26586;50.708;22.412;2023-05-10T11:13:30;21.50;27.00
40868;DHT22;26586;50.708;22.412;2023-05-10T11:15:57;21.50;27.30
40868;DHT22;26586;50.708;22.412;2023-05-10T11:18:28;21.50;28.00
40868;DHT22;26586;50.708;22.412;2023-05-10T11:21:00;21.50;28.20
40868;DHT22;26586;50.708;22.412;2023-05-10T11:23:51;21.50;28.40
40868;DHT22;26586;50.708;22.412;2023-05-10T11:26:18;21.50;28.30
40868;DHT22;26586;50.708;22.412;2023-05-10T11:28:46;21.50;28.00
40868;DHT22;26586;50.708;22.412;2023-05-10T11:31:17;21.60;28.20
40868;DHT22;26586;50.708;22.412;2023-05-10T11:33:54;21.60;28.00
40868;DHT22;26586;50.708;22.412;2023-05-10T11:36:26;21.60;28.30
40868;DHT22;26586;50.708;22.412;2023-05-10T11:38:54;21.60;28.70
40868;DHT22;26586;50.708;22.412;2023-05-10T11:41:22;21.60;28.70
40868;DHT22;26586;50.708;22.412;2023-05-10T11:43:52;21.60;27.50
40868;DHT22;26586;50.708;22.412;2023-05-10T11:46:21;21.60;27.00
40868;DHT22;26586;50.708;22.412;2023-05-10T11:48:52;21.60;27.30
40868;DHT22;26586;50.708;22.412;2023-05-10T11:51:23;21.60;27.50
40868;DHT22;26586;50.708;22.412;2023-05-10T11:53:53;21.60;27.20
40868;DHT22;26586;50.708;22.412;2023-05-10T11:56:20;21.60;28.10
40868;DHT22;26586;50.708;22.412;2023-05-10T11:58:56;21.60;27.80
40868;DHT22;26586;50.708;22.412;2023-05-10T12:01:24;21.60;26.50
40868;DHT22;26586;50.708;22.412;2023-05-10T12:03:52;21.60;27.20
40868;DHT22;26586;50.708;22.412;2023-05-10T12:06:22;21.70;27.00
40868;DHT22;26586;50.708;22.412;2023-05-10T12:08:49;21.70;27.40
40868;DHT22;26586;50.708;22.412;2023-05-10T12:11:24;21.70;27.80
40868;DHT22;26586;50.708;22.412;2023-05-10T12:13:51;21.70;28.20
40868;DHT22;26586;50.708;22.412;2023-05-10T12:16:23;21.70;28.10
40868;DHT22;26586;50.708;22.412;2023-05-10T12:18:53;21.70;28.10
40868;DHT22;26586;50.708;22.412;2023-05-10T12:21:21;21.70;30.90
40868;DHT22;26586;50.708;22.412;2023-05-10T12:23:50;21.70;28.00
40868;DHT22;26586;50.708;22.412;2023-05-10T12:26:18;21.70;28.50
40868;DHT22;26586;50.708;22.412;2023-05-10T12:28:47;21.70;27.50
40868;DHT22;26586;50.708;22.412;2023-05-10T12:31:13;21.70;27.60
40868;DHT22;26586;50.708;22.412;2023-05-10T12:33:42;21.70;27.80
40868;DHT22;26586;50.708;22.412;2023-05-10T12:36:14;21.80;27.20
40868;DHT22;26586;50.708;22.412;2023-05-10T12:38:42;21.70;27.50
40868;DHT22;26586;50.708;22.412;2023-05-10T12:41:10;21.80;28.80
40868;DHT22;26586;50.708;22.412;2023-05-10T12:43:37;21.80;28.40
40868;DHT22;26586;50.708;22.412;2023-05-10T12:46:08;21.70;26.70
40868;DHT22;26586;50.708;22.412;2023-05-10T12:48:36;21.80;26.90
40868;DHT22;26586;50.708;22.412;2023-05-10T12:51:07;21.80;28.30
40868;DHT22;26586;50.708;22.412;2023-05-10T12:53:43;21.80;29.10
40868;DHT22;26586;50.708;22.412;2023-05-10T12:56:18;21.80;28.30
40868;DHT22;26586;50.708;22.412;2023-05-10T12:58:57;21.80;27.40
40868;DHT22;26586;50.708;22.412;2023-05-10T13:01:25;21.80;27.20
40868;DHT22;26586;50.708;22.412;2023-05-10T13:03:51;21.80;27.20
40868;DHT22;26586;50.708;22.412;2023-05-10T13:06:18;21.80;26.90
40868;DHT22;26586;50.708;22.412;2023-05-10T13:08:44;21.80;27.50
40868;DHT22;26586;50.708;22.412;2023-05-10T13:11:10;21.80;27.30
40868;DHT22;26586;50.708;22.412;2023-05-10T13:13:37;21.70;26.90
40868;DHT22;26586;50.708;22.412;2023-05-10T13:16:03;21.80;27.20
40868;DHT22;26586;50.708;22.412;2023-05-10T13:18:30;21.80;26.80
40868;DHT22;26586;50.708;22.412;2023-05-10T13:20:57;21.80;26.90
40868;DHT22;26586;50.708;22.412;2023-05-10T13:23:23;21.70;30.10
40868;DHT22;26586;50.708;22.412;2023-05-10T13:25:49;21.80;28.50
40868;DHT22;26586;50.708;22.412;2023-05-10T13:28:16;21.70;27.80
40868;DHT22;26586;50.708;22.412;2023-05-10T13:30:42;21.80;27.60
40868;DHT22;26586;50.708;22.412;2023-05-10T13:33:08;21.80;27.70
40868;DHT22;26586;50.708;22.412;2023-05-10T13:35:35;21.70;27.60
40868;DHT22;26586;50.708;22.412;2023-05-10T13:38:01;21.70;27.90
40868;DHT22;26586;50.708;22.412;2023-05-10T13:40:28;21.70;27.20
40868;DHT22;26586;50.708;22.412;2023-05-10T13:42:54;21.70;27.10
40868;DHT22;26586;50.708;22.412;2023-05-10T13:45:21;21.70;27.20
40868;DHT22;26586;50.708;22.412;2023-05-10T13:47:47;21.70;27.50
40868;DHT22;26586;50.708;22.412;2023-05-10T13:50:16;21.70;27.10
40868;DHT22;26586;50.708;22.412;2023-05-10T13:52:43;21.70;27.10
40868;DHT22;26586;50.708;22.412;2023-05-10T13:55:10;21.70;27.50
40868;DHT22;26586;50.708;22.412;2023-05-10T13:57:38;21.70;27.50
40868;DHT22;26586;50.708;22.412;2023-05-10T14:00:05;21.70;27.50
40868;DHT22;26586;50.708;22.412;2023-05-10T14:02:31;21.70;26.50
40868;DHT22;26586;50.708;22.412;2023-05-10T14:04:57;21.60;27.30
40868;DHT22;26586;50.708;22.412;2023-05-10T14:07:23;21.60;26.90
40868;DHT22;26586;50.708;22.412;2023-05-10T14:09:50;21.60;27.10
40868;DHT22;26586;50.708;22.412;2023-05-10T14:12:16;21.60;27.30
40868;DHT22;26586;50.708;22.412;2023-05-10T14:14:43;21.60;28.40
40868;DHT22;26586;50.708;22.412;2023-05-10T14:17:12;21.60;27.50
40868;DHT22;26586;50.708;22.412;2023-05-10T14:19:38;21.60;27.50
40868;DHT22;26586;50.708;22.412;2023-05-10T14:22:04;21.60;27.20
40868;DHT22;26586;50.708;22.412;2023-05-10T14:24:31;21.60;27.00
40868;DHT22;26586;50.708;22.412;2023-05-10T14:27:01;21.60;27.30
40868;DHT22;26586;50.708;22.412;2023-05-10T14:29:27;21.60;28.00
40868;DHT22;26586;50.708;22.412;2023-05-10T14:31:57;21.60;27.50
40868;DHT22;26586;50.708;22.412;2023-05-10T14:34:23;21.60;27.20
40868;DHT22;26586;50.708;22.412;2023-05-10T14:36:50;21.60;26.90
40868;DHT22;26586;50.708;22.412;2023-05-10T14:39:18;21.60;27.00
40868;DHT22;26586;50.708;22.412;2023-05-10T14:41:44;21.60;26.90
40868;DHT22;26586;50.708;22.412;2023-05-10T14:44:11;21.60;27.00
40868;DHT22;26586;50.708;22.412;2023-05-10T14:46:37;21.60;27.20
40868;DHT22;26586;50.708;22.412;2023-05-10T14:49:04;21.50;26.90
40868;DHT22;26586;50.708;22.412;2023-05-10T14:51:36;21.60;28.70
40868;DHT22;26586;50.708;22.412;2023-05-10T14:54:03;21.60;27.40
40868;DHT22;26586;50.708;22.412;2023-05-10T14:56:29;21.50;27.50
40868;DHT22;26586;50.708;22.412;2023-05-10T14:58:59;21.50;28.40
40868;DHT22;26586;50.708;22.412;2023-05-10T15:01:25;21.50;27.40
40868;DHT22;26586;50.708;22.412;2023-05-10T15:03:52;21.50;27.50
40868;DHT22;26586;50.708;22.412;2023-05-10T15:06:23;21.50;27.50
40868;DHT22;26586;50.708;22.412;2023-05-10T15:08:51;21.50;26.50
40868;DHT22;26586;50.708;22.412;2023-05-10T15:11:17;21.50;26.20
40868;DHT22;26586;50.708;22.412;2023-05-10T15:13:44;21.50;26.60
40868;DHT22;26586;50.708;22.412;2023-05-10T15:16:10;21.50;27.80
40868;DHT22;26586;50.708;22.412;2023-05-10T15:18:36;21.40;27.40
40868;DHT22;26586;50.708;22.412;2023-05-10T15:21:02;21.40;26.00
40868;DHT22;26586;50.708;22.412;2023-05-10T15:23:29;21.40;26.60
40868;DHT22;26586;50.708;22.412;2023-05-10T15:25:55;21.40;26.40
40868;DHT22;26586;50.708;22.412;2023-05-10T15:28:22;21.40;26.50
40868;DHT22;26586;50.708;22.412;2023-05-10T15:30:48;21.30;26.30
40868;DHT22;26586;50.708;22.412;2023-05-10T15:33:14;21.30;27.50
40868;DHT22;26586;50.708;22.412;2023-05-10T15:35:44;21.30;26.30
40868;DHT22;26586;50.708;22.412;2023-05-10T15:38:11;21.30;26.60
40868;DHT22;26586;50.708;22.412;2023-05-10T15:40:39;21.30;26.50
40868;DHT22;26586;50.708;22.412;2023-05-10T15:43:06;21.30;27.40
40868;DHT22;26586;50.708;22.412;2023-05-10T15:45:32;21.20;27.00
40868;DHT22;26586;50.708;22.412;2023-05-10T15:47:58;21.20;26.90